Time;durP1;ratioP1;P1;durP2;ratioP2;P2;SDS_P1;SDS_P2;PMS_P1;PMS_P2;Temp;Humidity;BMP_temperature;BMP_pressure;BME280_temperature;BME280_humidity;BME280_pressure;Samples;Min_cycle;Max_cycle;Signal;HPM_P1;HPM_P2
2022/08/09 00:01:38;;;;;;;1.35;0.78;;;21.70;42.10;;;;;;948404;148;27425;-74
2022/08/09 00:04:05;;;;;;;3.17;0.95;;;21.70;42.20;;;;;;947253;151;27296;-74
2022/08/09 00:06:31;;;;;;;1.02;0.93;;;21.70;42.40;;;;;;948708;147;27419;-73
2022/08/09 00:08:58;;;;;;;2.70;1.10;;;21.60;42.50;;;;;;944530;149;27442;-74
2022/08/09 00:11:24;;;;;;;2.27;0.80;;;21.60;42.60;;;;;;946753;151;27296;-73
2022/08/09 00:13:51;;;;;;;1.35;1.20;;;21.60;42.70;;;;;;948239;147;27312;-74
2022/08/09 00:16:18;;;;;;;2.62;1.22;;;21.50;42.80;;;;;;931718;150;27326;-73
2022/08/09 00:18:44;;;;;;;0.90;0.90;;;21.50;42.90;;;;;;944452;149;29018;-75
2022/08/09 00:21:11;;;;;;;1.15;0.80;;;21.40;43.00;;;;;;948255;147;27327;-74
2022/08/09 00:23:37;;;;;;;1.00;1.00;;;21.40;43.10;;;;;;948096;148;27330;-74
2022/08/09 00:26:04;;;;;;;2.12;1.20;;;21.30;43.20;;;;;;948296;148;27309;-73
2022/08/09 00:28:30;;;;;;;1.67;1.00;;;21.30;43.30;;;;;;941587;149;27401;-75
2022/08/09 00:30:57;;;;;;;1.57;1.12;;;21.20;43.40;;;;;;947692;151;27719;-75
2022/08/09 00:33:25;;;;;;;1.17;1.07;;;21.20;43.50;;;;;;941990;149;27478;-75
2022/08/09 00:35:50;;;;;;;1.30;1.07;;;21.20;43.60;;;;;;947162;151;28262;-75
2022/08/09 00:38:17;;;;;;;1.35;1.07;;;21.10;43.70;;;;;;948481;147;27356;-74
2022/08/09 00:40:43;;;;;;;2.30;1.25;;;21.10;43.80;;;;;;940412;150;27341;-74
2022/08/09 00:43:10;;;;;;;1.40;0.90;;;21.10;43.90;;;;;;944618;151;27337;-74
2022/08/09 00:45:37;;;;;;;1.20;1.10;;;21.00;44.00;;;;;;944683;151;27360;-75
2022/08/09 00:48:03;;;;;;;2.33;1.10;;;21.00;44.10;;;;;;944838;151;27453;-74
2022/08/09 00:50:30;;;;;;;2.05;1.12;;;21.00;44.10;;;;;;944748;151;27418;-74
2022/08/09 00:52:56;;;;;;;1.32;1.22;;;21.00;44.30;;;;;;943582;151;27706;-75
2022/08/09 00:55:23;;;;;;;2.17;1.32;;;20.90;44.30;;;;;;945156;149;27285;-74
2022/08/09 00:57:50;;;;;;;1.60;1.00;;;20.90;44.40;;;;;;944753;151;27324;-75
2022/08/09 01:00:16;;;;;;;1.35;0.82;;;20.90;44.60;;;;;;946883;148;27457;-74
2022/08/09 01:02:43;;;;;;;1.10;1.10;;;20.80;44.60;;;;;;928928;154;27349;-74
2022/08/09 01:05:12;;;;;;;0.80;0.80;;;20.80;44.70;;;;;;946228;151;27252;-74
2022/08/09 01:07:57;;;;;;;1.55;1.17;;;20.70;44.70;;;;;;926540;153;27328;-74
2022/08/09 01:10:29;;;;;;;0.78;0.78;;;20.70;44.80;;;;;;935764;152;27472;-76
2022/08/09 01:13:04;;;;;;;1.02;0.80;;;20.60;44.80;;;;;;936244;152;27419;-77
2022/08/09 01:15:30;;;;;;;2.47;1.05;;;20.60;44.90;;;;;;935992;152;27361;-77
2022/08/09 01:17:57;;;;;;;2.62;1.10;;;20.50;45.10;;;;;;936318;153;27371;-77
2022/08/09 01:20:39;;;;;;;1.57;1.22;;;20.50;45.70;;;;;;936930;152;27368;-77
2022/08/09 01:23:23;;;;;;;1.20;1.10;;;20.50;45.40;;;;;;936272;152;27337;-76
2022/08/09 01:26:17;;;;;;;1.32;1.22;;;20.40;45.50;;;;;;935677;152;27311;-75
2022/08/09 01:28:44;;;;;;;4.15;1.20;;;20.40;45.60;;;;;;936410;152;27284;-76
2022/08/09 01:31:10;;;;;;;2.72;1.20;;;20.30;45.70;;;;;;936894;152;27352;-75
2022/08/09 01:33:37;;;;;;;1.47;1.30;;;20.20;46.00;;;;;;936612;150;27447;-75
2022/08/09 01:36:04;;;;;;;1.22;1.20;;;20.20;46.20;;;;;;927471;154;27387;-75
2022/08/09 01:38:30;;;;;;;1.82;1.40;;;20.20;46.40;;;;;;929778;151;27361;-75
2022/08/09 01:41:06;;;;;;;1.32;1.20;;;20.10;46.60;;;;;;943567;148;27645;-76
2022/08/09 01:43:35;;;;;;;2.15;1.42;;;20.10;46.70;;;;;;943123;148;27351;-76
2022/08/09 01:46:02;;;;;;;1.50;1.40;;;20.00;46.70;;;;;;938492;150;27447;-79
2022/08/09 01:48:28;;;;;;;1.95;1.30;;;20.00;46.90;;;;;;938218;150;27369;-76
2022/08/09 01:50:55;;;;;;;3.08;1.27;;;19.90;47.00;;;;;;938779;150;27517;-75
2022/08/09 01:53:24;;;;;;;1.30;1.20;;;19.90;47.10;;;;;;938643;150;27446;-76
2022/08/09 01:55:51;;;;;;;2.25;1.32;;;19.90;47.20;;;;;;938290;150;27351;-75
2022/08/09 01:58:17;;;;;;;1.47;1.37;;;19.80;47.30;;;;;;937699;150;27431;-76
2022/08/09 02:00:44;;;;;;;2.83;1.25;;;19.80;47.40;;;;;;937946;150;27370;-75
2022/08/09 02:03:11;;;;;;;1.12;1.10;;;19.80;47.40;;;;;;938702;150;27350;-75
2022/08/09 02:05:37;;;;;;;1.20;1.20;;;19.80;47.70;;;;;;944736;151;27422;-75
2022/08/09 02:08:04;;;;;;;1.75;1.32;;;19.70;47.60;;;;;;926624;150;27500;-75
2022/08/09 02:10:30;;;;;;;1.62;1.45;;;19.70;47.80;;;;;;928576;150;27413;-75
2022/08/09 02:12:57;;;;;;;1.60;1.35;;;19.70;47.80;;;;;;944602;148;27325;-77
2022/08/09 02:15:23;;;;;;;1.50;1.40;;;19.70;47.90;;;;;;941291;149;27376;-77
2022/08/09 02:17:50;;;;;;;2.02;1.40;;;19.60;48.00;;;;;;941747;149;27259;-77
2022/08/09 02:20:17;;;;;;;1.30;1.20;;;19.60;48.10;;;;;;941297;149;27285;-77
2022/08/09 02:22:49;;;;;;;1.50;1.40;;;19.50;48.20;;;;;;942284;148;27437;-77
2022/08/09 02:25:15;;;;;;;0.95;0.95;;;19.50;48.30;;;;;;939046;149;27482;-77
2022/08/09 02:27:42;;;;;;;1.95;1.35;;;19.50;48.30;;;;;;940489;149;27361;-77
2022/08/09 02:30:09;;;;;;;1.85;1.45;;;19.50;48.40;;;;;;940575;149;27435;-77
2022/08/09 02:32:35;;;;;;;1.37;1.27;;;19.50;48.50;;;;;;941589;149;27415;-77
2022/08/09 02:35:02;;;;;;;1.67;1.50;;;19.40;48.60;;;;;;941092;149;27266;-77
2022/08/09 02:37:28;;;;;;;1.40;1.30;;;19.40;48.70;;;;;;941588;149;27442;-77
2022/08/09 02:40:01;;;;;;;1.60;1.50;;;19.40;48.80;;;;;;942052;149;27447;-77
2022/08/09 02:42:27;;;;;;;2.10;1.50;;;19.30;48.90;;;;;;940166;149;28164;-77
2022/08/09 02:44:54;;;;;;;1.90;1.40;;;19.30;49.00;;;;;;941471;149;27390;-77
2022/08/09 02:47:20;;;;;;;1.67;1.55;;;19.30;49.20;;;;;;938661;149;27305;-77
2022/08/09 02:49:56;;;;;;;2.10;1.50;;;19.20;49.20;;;;;;941679;149;27748;-77
2022/08/09 02:52:22;;;;;;;2.40;1.52;;;19.20;49.30;;;;;;938407;149;27277;-77
2022/08/09 02:54:49;;;;;;;2.05;1.50;;;19.10;49.30;;;;;;940904;149;27322;-77
2022/08/09 02:57:15;;;;;;;1.35;1.25;;;19.10;49.40;;;;;;941418;149;27462;-77
2022/08/09 02:59:42;;;;;;;3.15;1.45;;;19.10;49.60;;;;;;941922;149;27326;-77
2022/08/09 03:02:09;;;;;;;1.63;1.33;;;19.10;49.70;;;;;;941999;149;27434;-77
2022/08/09 03:04:35;;;;;;;1.50;1.40;;;19.00;49.80;;;;;;941861;149;27765;-77
2022/08/09 03:07:03;;;;;;;1.47;1.30;;;19.00;49.90;;;;;;941705;149;27346;-77
2022/08/09 03:09:28;;;;;;;1.30;1.27;;;18.90;49.90;;;;;;940702;149;27337;-77
2022/08/09 03:11:55;;;;;;;2.08;1.87;;;18.90;50.00;;;;;;942403;149;27294;-77
2022/08/09 03:14:22;;;;;;;1.22;1.15;;;18.90;50.10;;;;;;942011;149;27314;-77
2022/08/09 03:16:48;;;;;;;1.40;1.30;;;18.80;50.10;;;;;;941592;149;27373;-77
2022/08/09 03:19:15;;;;;;;1.30;1.20;;;18.80;50.20;;;;;;941163;149;27436;-77
2022/08/09 03:21:42;;;;;;;2.42;1.42;;;18.80;50.30;;;;;;940834;150;27341;-77
2022/08/09 03:24:08;;;;;;;1.55;1.30;;;18.80;50.40;;;;;;942015;149;27413;-77
2022/08/09 03:26:35;;;;;;;1.30;1.20;;;18.70;50.50;;;;;;942103;149;27290;-77
2022/08/09 03:29:01;;;;;;;2.55;1.40;;;18.70;50.50;;;;;;941815;149;27334;-77
2022/08/09 03:31:28;;;;;;;1.85;1.47;;;18.70;50.60;;;;;;942021;149;27370;-77
2022/08/09 03:33:54;;;;;;;3.90;1.40;;;18.60;50.60;;;;;;942017;149;27413;-77
2022/08/09 03:36:21;;;;;;;1.47;1.37;;;18.60;50.70;;;;;;942265;149;27438;-77
2022/08/09 03:38:47;;;;;;;1.30;1.20;;;18.60;50.80;;;;;;949202;147;27286;-77
2022/08/09 03:41:14;;;;;;;3.27;1.42;;;18.60;50.90;;;;;;949017;147;27386;-77
2022/08/09 03:43:41;;;;;;;1.85;1.40;;;18.60;51.00;;;;;;948431;147;27394;-77
2022/08/09 03:46:07;;;;;;;1.57;1.47;;;18.60;51.10;;;;;;931926;150;27334;-77
2022/08/09 03:48:34;;;;;;;1.52;1.42;;;18.60;51.30;;;;;;952229;146;27418;-76
2022/08/09 03:51:00;;;;;;;1.50;1.40;;;18.60;51.30;;;;;;948163;147;27389;-77
2022/08/09 03:53:27;;;;;;;2.22;1.42;;;18.60;51.30;;;;;;948522;148;27472;-77
2022/08/09 03:55:54;;;;;;;1.82;1.72;;;18.60;51.30;;;;;;931964;150;27463;-77
2022/08/09 03:58:20;;;;;;;3.10;1.22;;;18.60;51.40;;;;;;925009;150;27398;-77
2022/08/09 04:00:47;;;;;;;2.70;1.55;;;18.60;51.40;;;;;;931437;150;27313;-77
2022/08/09 04:03:13;;;;;;;1.50;1.40;;;18.50;51.50;;;;;;940528;149;27446;-77
2022/08/09 04:05:40;;;;;;;1.52;1.42;;;18.60;51.50;;;;;;941995;149;27309;-77
2022/08/09 04:08:07;;;;;;;2.05;1.60;;;18.60;51.60;;;;;;948582;147;27335;-77
2022/08/09 04:10:33;;;;;;;2.70;1.47;;;18.60;51.50;;;;;;948474;148;27465;-77
2022/08/09 04:13:00;;;;;;;1.47;1.25;;;18.60;51.70;;;;;;931698;150;27399;-77
2022/08/09 04:15:26;;;;;;;1.72;1.40;;;18.60;51.60;;;;;;947635;147;27811;-77
2022/08/09 04:17:53;;;;;;;2.75;1.35;;;18.60;51.70;;;;;;948788;147;27334;-77
2022/08/09 04:20:19;;;;;;;1.42;1.32;;;18.60;51.70;;;;;;951514;148;27352;-77
2022/08/09 04:22:46;;;;;;;1.75;1.65;;;18.60;51.70;;;;;;948225;148;27364;-77
2022/08/09 04:25:13;;;;;;;1.95;1.50;;;18.60;51.80;;;;;;948909;148;27312;-77
2022/08/09 04:27:42;;;;;;;3.47;1.32;;;18.60;51.80;;;;;;949121;148;27337;-77
2022/08/09 04:30:12;;;;;;;2.60;1.50;;;18.70;51.90;;;;;;948606;148;27300;-77
2022/08/09 04:32:38;;;;;;;1.42;1.32;;;18.70;51.90;;;;;;947327;148;27445;-77
2022/08/09 04:35:05;;;;;;;1.50;1.20;;;18.70;51.90;;;;;;948013;148;27343;-77
2022/08/09 04:37:31;;;;;;;1.30;1.20;;;18.70;52.00;;;;;;948474;148;28339;-77
2022/08/09 04:39:58;;;;;;;1.77;1.32;;;18.70;52.00;;;;;;948530;148;27316;-77
2022/08/09 04:42:33;;;;;;;2.00;1.47;;;18.70;52.00;;;;;;951096;147;27411;-77
2022/08/09 04:44:51;;;;;;;1.50;1.40;;;18.70;52.10;;;;;;950258;149;27374;-77
2022/08/09 04:47:18;;;;;;;1.67;1.47;;;18.80;52.20;;;;;;951849;150;27333;-77
2022/08/09 04:49:44;;;;;;;1.45;1.35;;;18.80;52.20;;;;;;960326;146;27314;-76
2022/08/09 04:52:11;;;;;;;1.30;1.30;;;18.80;52.30;;;;;;948291;151;27307;-76
2022/08/09 04:54:38;;;;;;;1.95;1.30;;;18.90;52.30;;;;;;948072;150;27942;-77
2022/08/09 04:57:04;;;;;;;1.77;1.40;;;18.90;52.00;;;;;;948258;151;27522;-77
2022/08/09 04:59:31;;;;;;;2.83;1.47;;;18.90;52.30;;;;;;947980;150;27452;-76
2022/08/09 05:01:57;;;;;;;1.98;1.72;;;19.00;52.30;;;;;;948092;150;27431;-76
2022/08/09 05:04:24;;;;;;;1.40;1.32;;;19.10;52.40;;;;;;947290;151;27375;-77
2022/08/09 05:06:50;;;;;;;1.32;1.22;;;19.20;52.60;;;;;;947830;150;27372;-77
2022/08/09 05:09:17;;;;;;;1.55;1.45;;;19.40;52.90;;;;;;947113;150;27323;-77
2022/08/09 05:11:44;;;;;;;1.90;1.40;;;19.60;53.20;;;;;;948088;150;27347;-77
2022/08/09 05:14:10;;;;;;;1.72;1.47;;;20.00;53.60;;;;;;947739;151;27863;-77
2022/08/09 05:16:37;;;;;;;1.60;1.50;;;20.40;53.60;;;;;;948185;151;27276;-77
2022/08/09 05:19:03;;;;;;;5.70;1.40;;;21.00;53.70;;;;;;947597;151;27322;-77
2022/08/09 05:21:30;;;;;;;1.32;1.22;;;21.60;53.30;;;;;;946865;150;27303;-77
2022/08/09 05:23:57;;;;;;;1.40;1.30;;;22.30;52.80;;;;;;947548;150;27415;-77
2022/08/09 05:26:23;;;;;;;1.75;1.65;;;23.00;52.30;;;;;;947972;150;27332;-77
2022/08/09 05:28:50;;;;;;;2.35;1.10;;;23.70;51.60;;;;;;948062;151;27304;-77
2022/08/09 05:31:16;;;;;;;1.30;1.20;;;24.30;50.70;;;;;;948210;150;27248;-77
2022/08/09 05:33:43;;;;;;;2.90;1.50;;;25.00;49.90;;;;;;948276;150;27291;-77
2022/08/09 05:36:10;;;;;;;1.80;1.40;;;25.60;49.80;;;;;;948344;148;27304;-77
2022/08/09 05:38:36;;;;;;;1.50;1.40;;;26.30;48.50;;;;;;948298;150;27355;-77
2022/08/09 05:41:03;;;;;;;2.17;1.57;;;26.90;47.90;;;;;;947543;150;27390;-78
2022/08/09 05:43:29;;;;;;;1.22;1.15;;;27.50;47.20;;;;;;947635;148;27672;-78
2022/08/09 05:45:56;;;;;;;1.30;1.20;;;28.10;46.50;;;;;;947969;151;27405;-78
2022/08/09 05:48:22;;;;;;;1.57;1.20;;;28.70;45.70;;;;;;949059;150;27386;-78
2022/08/09 05:50:49;;;;;;;2.47;1.55;;;29.20;45.10;;;;;;948590;150;27328;-78
2022/08/09 05:53:16;;;;;;;1.20;1.10;;;29.70;44.30;;;;;;948497;148;27860;-78
2022/08/09 05:55:42;;;;;;;1.30;1.22;;;30.20;43.60;;;;;;948033;151;27264;-78
2022/08/09 05:58:09;;;;;;;2.95;1.40;;;30.70;42.70;;;;;;947650;151;27787;-78
2022/08/09 06:00:35;;;;;;;2.25;1.60;;;31.10;42.00;;;;;;948130;150;27309;-78
2022/08/09 06:03:02;;;;;;;2.95;1.40;;;31.40;41.30;;;;;;947164;150;27462;-78
2022/08/09 06:05:29;;;;;;;2.10;1.72;;;31.70;40.80;;;;;;948139;148;27344;-78
2022/08/09 06:07:55;;;;;;;1.35;1.25;;;32.00;40.50;;;;;;948000;151;27285;-78
2022/08/09 06:10:36;;;;;;;1.47;1.35;;;32.30;40.20;;;;;;947852;151;27312;-78
2022/08/09 06:12:48;;;;;;;2.65;1.42;;;32.70;40.00;;;;;;948297;150;27284;-78
2022/08/09 06:15:15;;;;;;;1.50;1.40;;;33.00;40.10;;;;;;947178;148;27331;-78
2022/08/09 06:17:42;;;;;;;1.02;1.00;;;33.40;39.00;;;;;;948581;150;27328;-78
2022/08/09 06:20:08;;;;;;;2.60;1.40;;;33.90;38.40;;;;;;947047;148;27456;-78
2022/08/09 06:22:35;;;;;;;1.00;1.00;;;34.20;38.00;;;;;;947639;150;27380;-78
2022/08/09 06:25:01;;;;;;;1.20;1.15;;;34.60;37.60;;;;;;947662;151;27368;-78
2022/08/09 06:27:28;;;;;;;1.77;1.15;;;35.00;37.30;;;;;;948315;150;27331;-78
2022/08/09 06:29:55;;;;;;;1.52;1.40;;;35.30;36.60;;;;;;948321;150;26324;-78
2022/08/09 06:32:21;;;;;;;1.10;1.00;;;35.70;35.80;;;;;;947471;150;27435;-78
2022/08/09 06:34:48;;;;;;;1.32;1.10;;;36.00;35.50;;;;;;948278;151;27325;-78
2022/08/09 06:37:14;;;;;;;1.25;1.15;;;36.30;35.20;;;;;;948194;150;27377;-78
2022/08/09 06:39:43;;;;;;;1.27;1.17;;;36.60;34.80;;;;;;948886;150;26300;-78
2022/08/09 06:42:08;;;;;;;1.40;1.20;;;37.00;34.40;;;;;;948437;150;26289;-78
2022/08/09 06:44:34;;;;;;;1.22;1.12;;;37.30;33.80;;;;;;951165;150;27448;-79
2022/08/09 06:47:01;;;;;;;1.30;1.20;;;37.60;33.10;;;;;;953216;150;26275;-79
2022/08/09 06:49:30;;;;;;;1.27;1.12;;;37.90;33.00;;;;;;952267;150;26319;-79
2022/08/09 06:51:54;;;;;;;1.07;1.07;;;38.10;32.40;;;;;;951882;149;26235;-79
2022/08/09 06:54:20;;;;;;;1.40;1.30;;;38.40;32.10;;;;;;953386;148;27285;-79
2022/08/09 06:56:47;;;;;;;2.10;1.20;;;38.60;31.90;;;;;;953517;148;26251;-79
2022/08/09 06:59:14;;;;;;;2.35;1.20;;;38.90;31.60;;;;;;953450;148;26252;-79
2022/08/09 07:01:40;;;;;;;2.45;1.30;;;39.20;31.20;;;;;;953277;148;27267;-78
2022/08/09 07:04:07;;;;;;;1.35;1.20;;;39.30;30.70;;;;;;952846;150;26340;-78
2022/08/09 07:06:34;;;;;;;1.30;1.20;;;39.60;30.60;;;;;;952891;148;27351;-79
2022/08/09 07:09:00;;;;;;;1.25;1.15;;;39.90;30.20;;;;;;954166;149;26243;-79
2022/08/09 07:11:27;;;;;;;2.08;1.42;;;40.20;30.70;;;;;;954088;150;26238;-79
2022/08/09 07:13:53;;;;;;;1.02;1.02;;;40.40;29.80;;;;;;952293;150;28907;-79
2022/08/09 07:16:20;;;;;;;3.55;1.52;;;40.80;29.50;;;;;;953702;150;26378;-79
2022/08/09 07:18:46;;;;;;;1.20;1.10;;;41.10;29.40;;;;;;953885;148;27578;-78
2022/08/09 07:21:13;;;;;;;3.15;1.32;;;41.40;29.00;;;;;;955011;148;26207;-79
2022/08/09 07:23:40;;;;;;;1.05;1.05;;;41.70;28.80;;;;;;956272;148;26342;-79
2022/08/09 07:26:06;;;;;;;1.37;1.25;;;42.00;28.60;;;;;;953964;150;26632;-79
2022/08/09 07:28:33;;;;;;;1.75;1.25;;;42.40;28.30;;;;;;952264;149;26236;-79
2022/08/09 07:30:59;;;;;;;1.57;1.05;;;42.70;28.00;;;;;;952109;148;27339;-80
2022/08/09 07:33:26;;;;;;;1.42;1.17;;;43.00;27.40;;;;;;952984;150;26191;-80
2022/08/09 07:35:52;;;;;;;2.85;1.67;;;43.30;27.30;;;;;;952551;148;26336;-80
2022/08/09 07:38:19;;;;;;;2.20;1.00;;;43.40;27.20;;;;;;952974;148;26250;-79
2022/08/09 07:40:46;;;;;;;1.22;1.10;;;43.70;27.10;;;;;;952217;148;26200;-79
2022/08/09 07:43:12;;;;;;;1.20;1.07;;;44.00;26.80;;;;;;952600;150;26366;-78
2022/08/09 07:45:39;;;;;;;1.07;1.02;;;44.30;26.50;;;;;;948150;148;26347;-78
2022/08/09 07:48:05;;;;;;;0.82;0.82;;;44.50;26.30;;;;;;948310;150;26295;-78
2022/08/09 07:50:34;;;;;;;1.35;1.07;;;44.90;25.90;;;;;;947738;151;26838;-78
2022/08/09 07:52:59;;;;;;;1.87;1.05;;;45.10;25.60;;;;;;948065;150;28383;-78
2022/08/09 07:55:25;;;;;;;1.05;1.05;;;45.20;25.20;;;;;;948436;150;26371;-78
2022/08/09 07:57:52;;;;;;;1.17;1.00;;;45.30;25.00;;;;;;948378;148;26270;-78
2022/08/09 08:00:18;;;;;;;1.00;1.00;;;45.40;25.50;;;;;;947045;151;26309;-79
2022/08/09 08:02:45;;;;;;;1.32;1.05;;;45.50;24.80;;;;;;948030;151;26232;-79
2022/08/09 08:05:12;;;;;;;1.05;0.90;;;45.60;24.70;;;;;;947450;148;26671;-79
2022/08/09 08:07:38;;;;;;;1.17;0.95;;;45.80;24.70;;;;;;947818;150;26317;-79
2022/08/09 08:10:05;;;;;;;1.62;1.05;;;45.90;24.60;;;;;;947678;151;26240;-79
2022/08/09 08:12:32;;;;;;;1.15;1.00;;;46.00;24.30;;;;;;948150;150;26239;-79
2022/08/09 08:14:58;;;;;;;2.85;1.30;;;46.20;24.40;;;;;;947802;150;26683;-79
2022/08/09 08:17:24;;;;;;;0.85;0.82;;;46.30;24.20;;;;;;947205;151;26278;-80
2022/08/09 08:19:51;;;;;;;0.88;0.88;;;46.50;24.10;;;;;;947036;150;26230;-80
2022/08/09 08:22:18;;;;;;;1.10;1.00;;;46.70;24.10;;;;;;946780;150;26790;-80
2022/08/09 08:24:45;;;;;;;1.80;1.17;;;47.00;24.00;;;;;;947615;151;26325;-80
2022/08/09 08:27:11;;;;;;;1.52;0.90;;;47.40;23.80;;;;;;948080;148;26247;-80
2022/08/09 08:29:37;;;;;;;1.50;0.93;;;47.80;23.50;;;;;;947334;151;26262;-80
2022/08/09 08:32:04;;;;;;;0.80;0.80;;;48.10;23.30;;;;;;946559;150;26564;-80
2022/08/09 08:34:31;;;;;;;1.05;1.00;;;48.30;22.90;;;;;;947874;150;26346;-80
2022/08/09 08:36:57;;;;;;;0.88;0.88;;;48.50;22.80;;;;;;948281;148;26177;-80
2022/08/09 08:39:24;;;;;;;1.07;0.90;;;48.70;22.50;;;;;;947747;150;26353;-80
2022/08/09 08:41:50;;;;;;;0.80;0.80;;;48.90;22.60;;;;;;948171;151;26280;-80
2022/08/09 08:44:18;;;;;;;0.88;0.82;;;49.10;22.40;;;;;;947666;151;26267;-80
2022/08/09 08:46:44;;;;;;;1.20;0.90;;;49.30;22.30;;;;;;939956;150;26288;-80
2022/08/09 08:49:10;;;;;;;2.20;1.00;;;49.50;22.10;;;;;;939963;151;26314;-80
2022/08/09 08:51:37;;;;;;;0.72;0.72;;;49.60;21.90;;;;;;940718;152;26232;-81
2022/08/09 08:54:06;;;;;;;0.72;0.72;;;49.70;21.70;;;;;;940224;150;26241;-80
2022/08/09 08:56:30;;;;;;;0.88;0.88;;;49.80;21.70;;;;;;939697;151;26266;-80
2022/08/09 08:58:56;;;;;;;2.00;0.95;;;50.00;21.50;;;;;;939181;152;26234;-80
2022/08/09 09:01:23;;;;;;;0.50;0.50;;;50.10;21.40;;;;;;939848;151;26270;-80
2022/08/09 09:03:50;;;;;;;0.55;0.55;;;50.10;21.10;;;;;;940049;152;26147;-80
2022/08/09 09:06:16;;;;;;;1.25;0.75;;;50.20;21.20;;;;;;939750;149;26692;-80
2022/08/09 09:08:43;;;;;;;1.12;0.93;;;50.20;21.20;;;;;;939896;151;28241;-80
2022/08/09 09:11:10;;;;;;;4.47;0.93;;;50.30;21.00;;;;;;939166;150;26189;-80
2022/08/09 09:13:36;;;;;;;1.30;0.90;;;50.40;20.90;;;;;;939962;150;26206;-80
2022/08/09 09:16:03;;;;;;;1.50;0.85;;;50.50;20.80;;;;;;940059;151;26221;-80
2022/08/09 09:18:29;;;;;;;1.07;0.85;;;50.60;20.80;;;;;;939272;151;26268;-80
2022/08/09 09:20:56;;;;;;;0.80;0.80;;;50.70;20.80;;;;;;939613;150;26253;-80
2022/08/09 09:23:31;;;;;;;1.25;0.90;;;50.80;20.50;;;;;;939787;152;26190;-80
2022/08/09 09:25:58;;;;;;;0.70;0.70;;;50.80;20.40;;;;;;896516;157;26372;-80
2022/08/09 09:28:25;;;;;;;1.35;1.02;;;50.90;20.20;;;;;;938597;152;26282;-80
2022/08/09 09:30:54;;;;;;;1.42;1.07;;;50.90;20.00;;;;;;938213;150;26245;-80
2022/08/09 09:33:20;;;;;;;1.00;0.70;;;50.80;19.90;;;;;;940193;152;26241;-80
2022/08/09 09:35:50;;;;;;;0.95;0.68;;;50.80;19.60;;;;;;939823;151;26197;-80
2022/08/09 09:38:17;;;;;;;0.68;0.68;;;50.60;19.40;;;;;;939677;151;26245;-80
2022/08/09 09:40:43;;;;;;;0.70;0.70;;;50.30;19.30;;;;;;949001;147;26229;-80
2022/08/09 09:43:10;;;;;;;1.22;0.65;;;50.10;19.40;;;;;;924076;151;26271;-80
2022/08/09 09:45:45;;;;;;;0.50;0.50;;;49.90;19.40;;;;;;924182;151;26389;-80
2022/08/09 09:48:12;;;;;;;0.55;0.53;;;49.70;19.30;;;;;;919138;150;26257;-80
2022/08/09 09:50:44;;;;;;;3.98;1.17;;;49.50;19.40;;;;;;921284;150;26361;-80
2022/08/09 09:53:19;;;;;;;0.42;0.42;;;49.10;19.10;;;;;;927472;150;26348;-80
2022/08/09 09:55:55;;;;;;;1.07;1.05;;;48.80;19.00;;;;;;925602;151;26267;-81
2022/08/09 09:58:21;;;;;;;0.75;0.70;;;48.30;19.00;;;;;;944656;149;26720;-80
2022/08/09 10:00:53;;;;;;;1.57;0.55;;;47.70;19.00;;;;;;945272;149;26365;-80
2022/08/09 10:03:44;;;;;;;0.50;0.50;;;47.10;19.10;;;;;;944268;149;26280;-80
2022/08/09 10:06:11;;;;;;;1.17;0.95;;;46.60;19.30;;;;;;945250;149;26288;-80
2022/08/09 10:08:37;;;;;;;0.80;0.80;;;45.80;19.50;;;;;;944774;149;26181;-80
2022/08/09 10:11:19;;;;;;;0.88;0.85;;;45.10;19.50;;;;;;944615;149;26376;-80
2022/08/09 10:13:46;;;;;;;1.92;0.98;;;44.50;19.60;;;;;;945396;149;26264;-80
2022/08/09 10:16:12;;;;;;;1.42;0.90;;;43.70;19.70;;;;;;947741;147;27438;-80
2022/08/09 10:18:39;;;;;;;2.60;1.00;;;43.00;19.90;;;;;;948072;147;27846;-80
2022/08/09 10:21:08;;;;;;;0.78;0.78;;;42.30;20.20;;;;;;946620;147;26761;-80
2022/08/09 10:23:35;;;;;;;2.40;1.10;;;41.50;20.30;;;;;;942807;149;27338;-80
2022/08/09 10:26:01;;;;;;;1.00;0.90;;;40.90;20.60;;;;;;948398;147;26273;-80
2022/08/09 10:28:28;;;;;;;0.98;0.80;;;40.30;20.80;;;;;;948460;147;26249;-79
2022/08/09 10:30:54;;;;;;;1.30;1.10;;;39.70;21.00;;;;;;942067;148;27427;-79
2022/08/09 10:33:21;;;;;;;2.35;1.07;;;39.20;21.20;;;;;;930072;150;26359;-79
2022/08/09 10:35:48;;;;;;;0.95;0.95;;;38.70;21.50;;;;;;945542;148;27299;-79
2022/08/09 10:38:14;;;;;;;1.52;1.02;;;38.20;21.60;;;;;;943972;148;28151;-79
2022/08/09 10:40:43;;;;;;;0.98;0.93;;;37.80;21.80;;;;;;943993;148;27446;-80
2022/08/09 10:43:07;;;;;;;2.15;1.32;;;37.40;22.00;;;;;;948460;147;27351;-79
2022/08/09 10:45:34;;;;;;;1.65;1.30;;;36.90;22.10;;;;;;944482;149;27350;-79
2022/08/09 10:48:09;;;;;;;1.22;1.12;;;36.50;22.30;;;;;;945136;149;27347;-79
2022/08/09 10:51:08;;;;;;;2.02;0.80;;;36.20;22.60;;;;;;946492;149;27295;-80
2022/08/09 10:53:42;;;;;;;2.47;1.10;;;35.80;22.80;;;;;;958854;147;27342;-79
2022/08/09 10:56:14;;;;;;;1.27;1.12;;;35.60;23.10;;;;;;957121;147;27433;-79
2022/08/09 10:58:40;;;;;;;1.02;1.02;;;35.30;23.30;;;;;;939609;150;27441;-79
2022/08/09 11:01:07;;;;;;;1.42;1.00;;;35.10;23.50;;;;;;959728;147;27326;-79
2022/08/09 11:03:33;;;;;;;1.10;1.05;;;34.90;23.60;;;;;;956929;147;27366;-80
2022/08/09 11:06:17;;;;;;;1.12;1.00;;;34.70;23.70;;;;;;959731;147;27340;-79
2022/08/09 11:08:41;;;;;;;1.80;1.32;;;34.60;23.90;;;;;;938891;150;27494;-79
2022/08/09 11:11:08;;;;;;;4.50;1.20;;;34.40;24.00;;;;;;941064;149;27337;-79
2022/08/09 11:13:35;;;;;;;3.95;1.05;;;34.30;24.20;;;;;;941854;149;27332;-79
2022/08/09 11:16:35;;;;;;;4.47;1.32;;;34.20;24.30;;;;;;949819;151;27390;-79
2022/08/09 11:19:02;;;;;;;1.10;1.02;;;34.00;24.40;;;;;;956722;147;28090;-79
2022/08/09 11:21:53;;;;;;;0.90;0.90;;;34.00;24.50;;;;;;944953;150;27293;-79
2022/08/09 11:24:20;;;;;;;1.00;1.00;;;33.90;24.60;;;;;;944676;151;27244;-79
2022/08/09 11:26:49;;;;;;;1.35;1.10;;;33.90;24.70;;;;;;945443;151;27778;-79
2022/08/09 11:29:46;;;;;;;1.25;1.15;;;33.80;24.80;;;;;;943900;151;27336;-79
2022/08/09 11:32:13;;;;;;;1.50;1.00;;;33.70;25.00;;;;;;929773;152;27450;-79
2022/08/09 11:34:42;;;;;;;1.40;1.10;;;33.70;25.00;;;;;;939050;151;27303;-79
2022/08/09 11:37:10;;;;;;;0.85;0.85;;;33.70;25.10;;;;;;944356;151;27369;-79
2022/08/09 11:39:53;;;;;;;1.20;1.10;;;33.70;25.20;;;;;;944671;151;27304;-79
2022/08/09 11:42:40;;;;;;;1.50;1.07;;;33.70;25.40;;;;;;911798;151;27359;-80
2022/08/09 11:45:22;;;;;;;0.90;0.90;;;33.70;25.30;;;;;;945050;151;27359;-80
2022/08/09 11:47:51;;;;;;;0.98;0.98;;;33.80;25.30;;;;;;934331;151;27799;-80
2022/08/09 11:50:18;;;;;;;0.90;0.90;;;33.80;25.30;;;;;;940360;151;27407;-80
2022/08/09 11:53:01;;;;;;;1.02;1.00;;;33.80;25.40;;;;;;940829;152;27306;-80
2022/08/09 11:55:30;;;;;;;0.88;0.88;;;33.90;25.50;;;;;;939571;151;27438;-80
2022/08/09 11:57:56;;;;;;;0.90;0.90;;;33.90;25.40;;;;;;940362;152;27961;-80
2022/08/09 12:00:22;;;;;;;2.15;0.93;;;34.00;25.40;;;;;;940323;152;27887;-80
2022/08/09 12:02:49;;;;;;;1.55;1.20;;;34.00;25.40;;;;;;940353;150;27398;-80
2022/08/09 12:05:16;;;;;;;0.98;0.98;;;34.00;25.30;;;;;;940630;152;27478;-80
2022/08/09 12:07:42;;;;;;;1.00;1.00;;;34.00;25.40;;;;;;939546;151;27775;-79
2022/08/09 12:10:09;;;;;;;1.65;0.90;;;34.00;25.40;;;;;;940150;152;27817;-80
2022/08/09 12:12:47;;;;;;;1.55;1.12;;;33.90;25.50;;;;;;939518;152;27819;-79
2022/08/09 12:15:23;;;;;;;1.10;0.98;;;33.90;25.50;;;;;;940054;152;27313;-79
2022/08/09 12:17:49;;;;;;;1.02;0.82;;;33.90;25.60;;;;;;941094;151;27266;-80
2022/08/09 12:20:16;;;;;;;1.37;1.00;;;33.80;25.50;;;;;;939756;151;27850;-80
2022/08/09 12:22:42;;;;;;;1.30;1.00;;;33.80;25.60;;;;;;940260;152;27313;-80
2022/08/09 12:25:15;;;;;;;0.95;0.95;;;33.80;25.50;;;;;;940808;149;27414;-80
2022/08/09 12:27:41;;;;;;;1.17;0.90;;;33.90;25.10;;;;;;940786;150;27261;-80
2022/08/09 12:30:08;;;;;;;1.25;1.10;;;33.90;25.60;;;;;;940812;152;27829;-80
2022/08/09 12:32:34;;;;;;;1.00;1.00;;;33.90;25.60;;;;;;940023;151;27429;-80
2022/08/09 12:35:01;;;;;;;1.10;1.00;;;33.90;25.50;;;;;;940144;149;27326;-80
2022/08/09 12:37:33;;;;;;;1.20;1.10;;;33.90;25.60;;;;;;940306;151;27308;-80
2022/08/09 12:40:06;;;;;;;1.05;0.93;;;33.90;25.70;;;;;;939076;152;27293;-80
2022/08/09 12:42:32;;;;;;;2.35;1.00;;;33.90;25.60;;;;;;939577;150;27446;-80
2022/08/09 12:44:59;;;;;;;1.00;1.00;;;33.90;25.60;;;;;;940612;150;27738;-80
2022/08/09 12:47:26;;;;;;;1.30;1.20;;;33.90;25.60;;;;;;940559;149;27326;-80
2022/08/09 12:52:37;;;;;;;0.90;0.90;;;33.80;25.70;;;;;;941144;152;27314;-80
2022/08/09 12:55:03;;;;;;;0.90;0.90;;;33.80;25.60;;;;;;939755;151;27341;-80